createdAt,value
2023-05-01T00:01:12.250Z,100.00
2023-05-01T00:03:57.125Z,100.00
2023-05-01T00:06:41.879Z,100.00
2023-05-01T00:09:29.995Z,100.00
2023-05-01T00:12:14.866Z,100.00
2023-05-01T00:14:59.690Z,100.00
2023-05-01T00:17:44.563Z,100.00
2023-05-01T00:20:29.816Z,100.00
2023-05-01T00:23:14.724Z,100.00
2023-05-01T00:25:59.684Z,100.00
2023-05-01T00:28:44.767Z,100.00
2023-05-01T00:31:30.030Z,100.00
2023-05-01T00:34:14.803Z,100.00
2023-05-01T00:36:59.725Z,100.00
2023-05-01T00:39:44.503Z,100.00
2023-05-01T00:42:39.104Z,100.00
2023-05-01T00:45:25.269Z,100.00
2023-05-01T00:48:11.211Z,100.00
2023-05-01T00:50:58.329Z,100.00
2023-05-01T00:53:43.615Z,100.00
2023-05-01T00:56:30.887Z,100.00
2023-05-01T00:59:15.862Z,100.00
2023-05-01T01:02:01.492Z,100.00
2023-05-01T01:04:47.832Z,100.00
2023-05-01T01:07:43.853Z,100.00
2023-05-01T01:10:56.944Z,100.00
2023-05-01T01:13:57.032Z,100.00
2023-05-01T01:16:48.634Z,100.00
2023-05-01T01:19:49.519Z,100.00
2023-05-01T01:22:38.826Z,100.00
2023-05-01T01:26:00.206Z,100.00
2023-05-01T01:29:04.697Z,100.00
2023-05-01T01:32:26.608Z,100.00
2023-05-01T01:35:19.362Z,100.00
2023-05-01T01:38:07.185Z,100.00
2023-05-01T01:41:08.654Z,100.00
2023-05-01T01:44:01.378Z,100.00
2023-05-01T01:46:48.544Z,100.00
2023-05-01T01:49:37.075Z,100.00
2023-05-01T01:52:24.570Z,100.00
2023-05-01T01:55:13.174Z,100.00
2023-05-01T01:58:00.501Z,100.00
2023-05-01T02:00:46.111Z,100.00
2023-05-01T02:03:32.999Z,100.00
2023-05-01T02:06:18.171Z,100.00
2023-05-01T02:09:06.352Z,100.00
2023-05-01T02:11:53.344Z,100.00
2023-05-01T02:14:39.623Z,100.00
2023-05-01T02:17:24.925Z,100.00
2023-05-01T02:20:12.616Z,100.00
2023-05-01T02:22:58.616Z,100.00
2023-05-01T02:25:45.121Z,100.00
2023-05-01T02:28:31.286Z,100.00
2023-05-01T02:31:16.289Z,100.00
2023-05-01T02:34:01.354Z,100.00
2023-05-01T02:36:46.251Z,100.00
2023-05-01T02:39:31.655Z,100.00
2023-05-01T02:42:20.169Z,100.00
2023-05-01T02:45:10.914Z,100.00
2023-05-01T02:47:59.935Z,100.00
2023-05-01T02:50:46.078Z,100.00
2023-05-01T02:53:32.615Z,100.00
2023-05-01T02:56:18.094Z,100.00
2023-05-01T02:59:02.974Z,100.00
2023-05-01T03:01:48.006Z,100.00
2023-05-01T03:04:33.191Z,100.00
2023-05-01T03:07:18.520Z,100.00
2023-05-01T03:10:05.276Z,100.00
2023-05-01T03:12:50.129Z,100.00
2023-05-01T03:15:35.237Z,100.00
2023-05-01T03:18:20.378Z,100.00
2023-05-01T03:21:05.305Z,100.00
2023-05-01T03:23:50.132Z,100.00
2023-05-01T03:26:35.225Z,100.00
2023-05-01T03:29:19.965Z,100.00
2023-05-01T03:32:05.793Z,100.00
2023-05-01T03:34:50.630Z,100.00
2023-05-01T03:37:36.012Z,100.00
2023-05-01T03:40:21.173Z,100.00
2023-05-01T03:43:06.562Z,100.00
2023-05-01T03:45:52.456Z,100.00
2023-05-01T03:48:37.613Z,100.00
2023-05-01T03:51:22.478Z,100.00
2023-05-01T03:54:07.249Z,100.00
2023-05-01T03:56:52.523Z,100.00
2023-05-01T03:59:37.993Z,100.00
2023-05-01T04:02:23.212Z,100.00
2023-05-01T04:05:09.213Z,100.00
2023-05-01T04:07:54.203Z,100.00
2023-05-01T04:10:38.969Z,100.00
2023-05-01T04:13:24.090Z,100.00
2023-05-01T04:16:08.793Z,100.00
2023-05-01T04:18:54.925Z,100.00
2023-05-01T04:21:39.777Z,100.00
2023-05-01T04:24:24.826Z,100.00
2023-05-01T04:27:09.758Z,100.00
2023-05-01T04:29:54.994Z,100.00
2023-05-01T04:32:40.452Z,100.00
2023-05-01T04:35:25.566Z,100.00
2023-05-01T04:38:10.431Z,100.00
2023-05-01T04:40:56.102Z,100.00
2023-05-01T04:43:40.857Z,100.00
2023-05-01T04:46:25.961Z,100.00
2023-05-01T04:49:11.549Z,100.00
2023-05-01T04:51:56.373Z,100.00
2023-05-01T04:54:41.441Z,100.00
2023-05-01T04:57:26.852Z,100.00
2023-05-01T05:00:12.324Z,100.00
2023-05-01T05:02:57.141Z,100.00
2023-05-01T05:05:42.273Z,100.00
2023-05-01T05:08:27.305Z,100.00
2023-05-01T05:11:12.731Z,100.00
2023-05-01T05:13:57.832Z,100.00
2023-05-01T05:16:43.071Z,100.00
2023-05-01T05:19:28.147Z,100.00
2023-05-01T05:22:13.208Z,100.00
2023-05-01T05:25:04.002Z,100.00
2023-05-01T05:27:49.046Z,100.00
2023-05-01T05:30:34.199Z,100.00
2023-05-01T05:33:19.258Z,100.00
2023-05-01T05:36:04.501Z,100.00
2023-05-01T05:38:49.693Z,100.00
2023-05-01T05:41:34.377Z,100.00
2023-05-01T05:44:20.300Z,100.00
2023-05-01T05:47:05.231Z,100.00
2023-05-01T05:49:50.329Z,100.00
2023-05-01T05:52:35.221Z,100.00
2023-05-01T05:55:20.472Z,100.00
2023-05-01T05:58:05.641Z,100.00
2023-05-01T06:00:52.857Z,100.00
2023-05-01T06:03:38.337Z,100.00
2023-05-01T06:06:23.608Z,100.00
2023-05-01T06:09:08.729Z,100.00
2023-05-01T06:11:53.512Z,100.00
2023-05-01T06:14:38.214Z,100.00
2023-05-01T06:17:24.040Z,100.00
2023-05-01T06:20:10.211Z,100.00
2023-05-01T06:22:55.526Z,100.00
2023-05-01T06:25:40.740Z,100.00
2023-05-01T06:28:25.620Z,100.00
2023-05-01T06:31:10.981Z,100.00
2023-05-01T06:33:55.928Z,100.00
2023-05-01T06:36:40.849Z,100.00
2023-05-01T06:39:25.745Z,100.00
2023-05-01T06:42:15.591Z,100.00
2023-05-01T06:45:00.824Z,100.00
2023-05-01T06:47:45.742Z,100.00
2023-05-01T06:50:31.069Z,100.00
2023-05-01T06:53:16.180Z,100.00
2023-05-01T06:56:00.862Z,100.00
2023-05-01T06:58:45.953Z,100.00
2023-05-01T07:01:32.687Z,100.00
2023-05-01T07:04:18.910Z,100.00
2023-05-01T07:07:03.985Z,100.00
2023-05-01T07:09:49.057Z,100.00
2023-05-01T07:12:33.852Z,100.00
2023-05-01T07:15:19.245Z,100.00
2023-05-01T07:18:05.988Z,100.00
2023-05-01T07:20:52.726Z,100.00
2023-05-01T07:23:38.050Z,100.00
2023-05-01T07:26:26.654Z,100.00
2023-05-01T07:29:13.172Z,100.00
2023-05-01T07:31:58.477Z,100.00
2023-05-01T07:34:43.470Z,100.00
2023-05-01T07:37:28.686Z,100.00
2023-05-01T07:40:13.678Z,100.00
2023-05-01T07:42:58.641Z,100.00
2023-05-01T07:45:54.805Z,100.00
2023-05-01T07:48:39.857Z,100.00
2023-05-01T07:51:24.698Z,100.00
2023-05-01T07:54:09.518Z,100.00
2023-05-01T07:56:54.333Z,100.00
2023-05-01T07:59:39.390Z,100.00
2023-05-01T08:02:24.420Z,100.00
2023-05-01T08:05:10.122Z,100.00
2023-05-01T08:07:54.858Z,100.00
2023-05-01T08:10:39.665Z,100.00
2023-05-01T08:13:24.594Z,100.00
2023-05-01T08:16:09.548Z,100.00
2023-05-01T08:18:54.523Z,100.00
2023-05-01T08:21:39.321Z,100.00
2023-05-01T08:24:24.864Z,100.00
2023-05-01T08:27:10.119Z,100.00
2023-05-01T08:29:55.079Z,100.00
2023-05-01T08:32:40.016Z,100.00
2023-05-01T08:35:25.126Z,100.00
2023-05-01T08:38:11.623Z,100.00
2023-05-01T08:40:58.701Z,100.00
2023-05-01T08:43:43.769Z,100.00
2023-05-01T08:46:41.354Z,100.00
2023-05-01T08:49:27.475Z,100.00
2023-05-01T08:52:14.360Z,100.00
2023-05-01T08:55:01.339Z,100.00
2023-05-01T08:57:48.064Z,100.00
2023-05-01T09:00:35.642Z,100.00
2023-05-01T09:03:21.439Z,100.00
2023-05-01T09:06:07.868Z,99.56
2023-05-01T09:08:52.616Z,100.00
2023-05-01T09:11:37.949Z,91.21
2023-05-01T09:14:23.433Z,92.44
2023-05-01T09:17:08.423Z,91.71
2023-05-01T09:19:53.581Z,96.77
2023-05-01T09:22:38.571Z,93.45
2023-05-01T09:25:23.851Z,98.37
2023-05-01T09:28:08.794Z,96.57
2023-05-01T09:30:53.611Z,90.72
2023-05-01T09:33:51.708Z,95.31
2023-05-01T09:36:37.371Z,98.40
2023-05-01T09:39:22.971Z,99.51
2023-05-01T09:42:07.996Z,90.08
2023-05-01T09:44:53.890Z,92.34
2023-05-01T09:47:39.883Z,87.36
2023-05-01T09:50:31.671Z,82.56
2023-05-01T09:53:16.650Z,88.84
2023-05-01T09:56:02.187Z,87.38
2023-05-01T09:58:51.749Z,85.11
2023-05-01T10:01:39.453Z,84.13
2023-05-01T10:04:34.500Z,79.51
2023-05-01T10:07:19.818Z,78.79
2023-05-01T10:10:23.663Z,85.73
2023-05-01T10:13:17.960Z,75.11
2023-05-01T10:16:07.276Z,62.42
2023-05-01T10:18:52.136Z,66.79
2023-05-01T10:21:37.206Z,74.75
2023-05-01T10:24:22.112Z,71.21
2023-05-01T10:27:07.854Z,78.91
2023-05-01T10:29:53.811Z,81.60
2023-05-01T10:32:41.773Z,83.08
2023-05-01T10:35:31.897Z,88.04
2023-05-01T10:38:25.931Z,88.21
2023-05-01T10:41:11.307Z,86.19
2023-05-01T10:44:19.845Z,88.12
2023-05-01T10:47:34.594Z,87.87
2023-05-01T10:50:19.732Z,85.03
2023-05-01T10:53:14.252Z,88.72
2023-05-01T10:55:59.446Z,87.34
2023-05-01T10:58:51.208Z,87.57
2023-05-01T11:01:39.622Z,83.90
2023-05-01T11:04:24.727Z,85.87
2023-05-01T11:07:18.254Z,84.46
2023-05-01T11:10:03.027Z,71.35
2023-05-01T11:12:51.405Z,84.55
2023-05-01T11:15:36.738Z,84.44
2023-05-01T11:18:45.262Z,78.76
2023-05-01T11:21:33.371Z,82.88
2023-05-01T11:24:19.616Z,84.68
2023-05-01T11:27:04.809Z,83.31
2023-05-01T11:29:50.378Z,81.81
2023-05-01T11:32:35.773Z,82.52
2023-05-01T11:35:28.798Z,75.48
2023-05-01T11:38:18.706Z,74.95
2023-05-01T11:41:06.593Z,68.00
2023-05-01T11:43:58.794Z,74.10
2023-05-01T11:46:43.879Z,77.58
2023-05-01T11:49:29.313Z,76.47
2023-05-01T11:52:14.223Z,72.08
2023-05-01T11:54:59.297Z,74.69
2023-05-01T11:57:52.446Z,71.53
2023-05-01T12:00:39.341Z,69.72
2023-05-01T12:03:24.469Z,73.69
2023-05-01T12:06:11.765Z,67.96
2023-05-01T12:08:56.781Z,68.88
2023-05-01T12:11:42.592Z,62.73
2023-05-01T12:14:27.844Z,65.60
2023-05-01T12:17:13.183Z,62.63
2023-05-01T12:19:58.272Z,61.42
2023-05-01T12:22:50.325Z,64.39
2023-05-01T12:25:36.672Z,68.53
2023-05-01T12:28:22.075Z,60.64
2023-05-01T12:31:08.068Z,61.70
2023-05-01T12:33:58.280Z,60.62
2023-05-01T12:36:53.296Z,60.70
2023-05-01T12:39:40.359Z,63.30
2023-05-01T12:42:25.513Z,61.51
2023-05-01T12:45:14.567Z,59.25
2023-05-01T12:47:59.620Z,57.37
2023-05-01T12:50:45.964Z,56.43
2023-05-01T12:53:33.348Z,66.00
2023-05-01T12:56:23.741Z,61.99
2023-05-01T12:59:20.206Z,62.59
2023-05-01T13:02:07.298Z,58.26
2023-05-01T13:04:52.059Z,53.59
2023-05-01T13:07:38.294Z,49.36
2023-05-01T13:10:31.436Z,48.71
2023-05-01T13:13:24.538Z,45.67
2023-05-01T13:16:16.735Z,47.53
2023-05-01T13:19:01.676Z,47.79
2023-05-01T13:21:50.371Z,44.76
2023-05-01T13:24:39.779Z,48.48
2023-05-01T13:27:25.462Z,44.49
2023-05-01T13:30:12.254Z,45.41
2023-05-01T13:32:57.427Z,46.14
2023-05-01T13:35:42.571Z,50.06
2023-05-01T13:38:28.525Z,51.03
2023-05-01T13:41:16.239Z,50.07
2023-05-01T13:44:01.394Z,51.17
2023-05-01T13:46:47.272Z,49.00
2023-05-01T13:49:32.373Z,52.10
2023-05-01T13:52:19.371Z,55.21
2023-05-01T13:55:07.169Z,63.32
2023-05-01T13:57:52.216Z,73.25
2023-05-01T14:00:39.644Z,81.69
2023-05-01T14:03:25.097Z,87.58
2023-05-01T14:06:18.033Z,89.83
2023-05-01T14:09:05.554Z,93.35
2023-05-01T14:11:51.198Z,93.40
2023-05-01T14:14:36.374Z,86.58
2023-05-01T14:17:36.046Z,85.79
2023-05-01T14:20:21.218Z,89.00
2023-05-01T14:23:06.167Z,85.89
2023-05-01T14:25:51.418Z,86.74
2023-05-01T14:28:43.126Z,90.63
2023-05-01T14:31:29.993Z,95.81
2023-05-01T14:34:17.287Z,96.57
2023-05-01T14:37:02.422Z,100.00
2023-05-01T14:39:47.208Z,100.00
2023-05-01T14:42:32.065Z,100.00
2023-05-01T14:45:17.393Z,100.00
2023-05-01T14:48:02.965Z,100.00
2023-05-01T14:50:48.157Z,100.00
2023-05-01T14:53:33.614Z,100.00
2023-05-01T14:56:19.005Z,100.00
2023-05-01T14:59:04.113Z,100.00
2023-05-01T15:01:49.438Z,100.00
2023-05-01T15:04:34.529Z,100.00
2023-05-01T15:07:19.460Z,100.00
2023-05-01T15:10:04.750Z,100.00
2023-05-01T15:12:51.154Z,100.00
2023-05-01T15:15:36.265Z,100.00
2023-05-01T15:18:22.690Z,100.00
2023-05-01T15:21:07.718Z,100.00
2023-05-01T15:23:52.878Z,100.00
2023-05-01T15:26:37.734Z,100.00
2023-05-01T15:29:22.830Z,100.00
2023-05-01T15:32:12.474Z,100.00
2023-05-01T15:34:58.335Z,100.00
2023-05-01T15:37:43.610Z,100.00
2023-05-01T15:40:28.649Z,100.00
2023-05-01T15:43:13.438Z,100.00
2023-05-01T15:45:59.514Z,100.00
2023-05-01T15:48:46.150Z,100.00
2023-05-01T15:51:33.912Z,100.00
2023-05-01T15:54:19.042Z,100.00
2023-05-01T15:57:03.906Z,100.00
2023-05-01T15:59:53.681Z,100.00
2023-05-01T16:02:38.804Z,100.00
2023-05-01T16:05:24.795Z,100.00
2023-05-01T16:08:10.110Z,100.00
2023-05-01T16:10:56.480Z,100.00
2023-05-01T16:13:43.001Z,100.00
2023-05-01T16:16:28.590Z,100.00
2023-05-01T16:19:16.544Z,100.00
2023-05-01T16:22:04.086Z,100.00
2023-05-01T16:24:49.399Z,100.00
2023-05-01T16:27:34.415Z,100.00
2023-05-01T16:30:21.862Z,100.00
2023-05-01T16:33:15.614Z,100.00
2023-05-01T16:36:02.865Z,100.00
2023-05-01T16:38:47.823Z,100.00
2023-05-01T16:41:42.078Z,100.00
2023-05-01T16:44:27.677Z,100.00
2023-05-01T16:47:12.975Z,100.00
2023-05-01T16:49:59.840Z,100.00
2023-05-01T16:52:45.275Z,100.00
2023-05-01T16:55:30.322Z,100.00
2023-05-01T16:58:15.281Z,100.00
2023-05-01T17:01:00.266Z,100.00
2023-05-01T17:03:45.287Z,100.00
2023-05-01T17:06:31.150Z,100.00
2023-05-01T17:09:15.842Z,100.00
2023-05-01T17:12:03.219Z,100.00
2023-05-01T17:14:48.358Z,100.00
2023-05-01T17:17:33.662Z,100.00
2023-05-01T17:20:18.592Z,100.00
2023-05-01T17:23:03.830Z,100.00
2023-05-01T17:25:48.805Z,100.00
2023-05-01T17:28:33.807Z,100.00
2023-05-01T17:31:21.073Z,100.00
2023-05-01T17:34:07.654Z,100.00
2023-05-01T17:36:52.931Z,100.00
2023-05-01T17:39:38.448Z,100.00
2023-05-01T17:42:23.517Z,100.00
2023-05-01T17:45:10.121Z,100.00
2023-05-01T17:47:55.500Z,100.00
2023-05-01T17:50:40.490Z,100.00
2023-05-01T17:53:25.542Z,100.00
2023-05-01T17:56:10.468Z,100.00
2023-05-01T17:58:55.305Z,100.00
2023-05-01T18:01:40.120Z,100.00
2023-05-01T18:04:25.033Z,100.00
2023-05-01T18:07:10.394Z,100.00
2023-05-01T18:09:55.155Z,100.00
2023-05-01T18:12:40.510Z,100.00
2023-05-01T18:15:26.077Z,100.00
2023-05-01T18:18:11.093Z,100.00
2023-05-01T18:20:57.025Z,100.00
2023-05-01T18:23:42.174Z,100.00
2023-05-01T18:26:27.524Z,100.00
2023-05-01T18:29:14.112Z,100.00
2023-05-01T18:31:59.050Z,100.00
2023-05-01T18:34:45.285Z,100.00
2023-05-01T18:37:30.206Z,100.00
2023-05-01T18:40:15.377Z,100.00
2023-05-01T18:43:00.248Z,100.00
2023-05-01T18:45:45.106Z,100.00
2023-05-01T18:48:30.235Z,100.00
2023-05-01T18:51:15.543Z,100.00
2023-05-01T18:54:02.070Z,100.00
2023-05-01T18:56:49.103Z,100.00
2023-05-01T18:59:33.909Z,100.00
2023-05-01T19:02:18.697Z,100.00
2023-05-01T19:05:03.991Z,100.00
2023-05-01T19:07:49.038Z,100.00
2023-05-01T19:10:35.946Z,100.00
2023-05-01T19:13:22.348Z,100.00
2023-05-01T19:16:07.431Z,100.00
2023-05-01T19:18:52.915Z,100.00
2023-05-01T19:21:37.859Z,100.00
2023-05-01T19:24:22.636Z,100.00
2023-05-01T19:27:07.876Z,100.00
2023-05-01T19:29:54.086Z,100.00
2023-05-01T19:32:39.098Z,100.00
2023-05-01T19:35:24.225Z,100.00
2023-05-01T19:38:09.486Z,100.00
2023-05-01T19:40:54.723Z,100.00
2023-05-01T19:43:40.386Z,100.00
2023-05-01T19:46:25.679Z,100.00
2023-05-01T19:49:10.297Z,100.00
2023-05-01T19:51:55.606Z,100.00
2023-05-01T19:54:40.987Z,100.00
2023-05-01T19:57:26.048Z,100.00
2023-05-01T20:00:12.202Z,100.00
2023-05-01T20:02:57.614Z,100.00
2023-05-01T20:05:42.990Z,100.00
2023-05-01T20:08:27.802Z,100.00
2023-05-01T20:11:13.016Z,100.00
2023-05-01T20:13:57.860Z,100.00
2023-05-01T20:16:43.121Z,100.00
2023-05-01T20:19:28.817Z,100.00
2023-05-01T20:22:13.882Z,100.00
2023-05-01T20:24:58.840Z,100.00
2023-05-01T20:27:43.843Z,100.00
2023-05-01T20:30:29.272Z,100.00
2023-05-01T20:33:14.340Z,100.00
2023-05-01T20:36:00.168Z,100.00
2023-05-01T20:38:47.414Z,100.00
2023-05-01T20:41:32.355Z,100.00
2023-05-01T20:44:17.466Z,100.00
2023-05-01T20:47:02.591Z,100.00
2023-05-01T20:49:47.587Z,100.00
2023-05-01T20:52:32.409Z,100.00
2023-05-01T20:55:17.654Z,100.00
2023-05-01T20:58:02.822Z,100.00
2023-05-01T21:00:48.030Z,100.00
2023-05-01T21:03:33.227Z,100.00
2023-05-01T21:06:18.380Z,100.00
2023-05-01T21:09:04.721Z,100.00
2023-05-01T21:11:49.952Z,100.00
2023-05-01T21:14:35.087Z,100.00
2023-05-01T21:17:20.115Z,100.00
2023-05-01T21:20:12.649Z,100.00
2023-05-01T21:23:01.853Z,100.00
2023-05-01T21:25:46.704Z,100.00
2023-05-01T21:28:31.832Z,100.00
2023-05-01T21:31:16.818Z,100.00
2023-05-01T21:34:04.870Z,100.00
2023-05-01T21:36:49.938Z,100.00
2023-05-01T21:39:36.041Z,100.00
2023-05-01T21:42:21.159Z,100.00
2023-05-01T21:45:12.688Z,100.00
2023-05-01T21:47:58.160Z,100.00
2023-05-01T21:50:42.876Z,100.00
2023-05-01T21:53:29.594Z,100.00
2023-05-01T21:56:14.521Z,100.00
2023-05-01T21:59:05.176Z,100.00
2023-05-01T22:01:50.258Z,100.00
2023-05-01T22:04:36.035Z,100.00
2023-05-01T22:07:21.361Z,100.00
2023-05-01T22:10:08.671Z,100.00
2023-05-01T22:12:53.736Z,100.00
2023-05-01T22:15:38.507Z,100.00
2023-05-01T22:18:23.738Z,100.00
2023-05-01T22:21:08.652Z,100.00
2023-05-01T22:23:53.813Z,100.00
2023-05-01T22:26:38.463Z,100.00
2023-05-01T22:29:23.697Z,100.00
2023-05-01T22:32:08.806Z,100.00
2023-05-01T22:34:53.799Z,100.00
2023-05-01T22:37:38.413Z,100.00
2023-05-01T22:40:23.321Z,100.00
2023-05-01T22:43:08.706Z,100.00
2023-05-01T22:45:53.967Z,100.00
2023-05-01T22:48:38.863Z,100.00
2023-05-01T22:51:23.890Z,100.00
2023-05-01T22:54:09.034Z,100.00
2023-05-01T22:56:54.199Z,100.00
2023-05-01T22:59:40.402Z,100.00
2023-05-01T23:02:25.173Z,100.00
2023-05-01T23:05:11.281Z,100.00
2023-05-01T23:07:56.134Z,100.00
2023-05-01T23:10:42.108Z,100.00
2023-05-01T23:13:27.995Z,100.00
2023-05-01T23:16:17.040Z,100.00
2023-05-01T23:19:02.223Z,100.00
2023-05-01T23:21:48.367Z,100.00
2023-05-01T23:24:41.688Z,100.00
2023-05-01T23:27:27.289Z,100.00
2023-05-01T23:30:13.670Z,100.00
2023-05-01T23:32:59.661Z,100.00
2023-05-01T23:35:44.980Z,100.00
2023-05-01T23:38:30.309Z,100.00
2023-05-01T23:41:15.898Z,100.00
2023-05-01T23:44:01.178Z,100.00
2023-05-01T23:46:46.662Z,100.00
2023-05-01T23:49:31.723Z,100.00
2023-05-01T23:52:16.987Z,100.00
2023-05-01T23:55:02.058Z,100.00
2023-05-01T23:57:46.899Z,100.00
